< < Back
Terminal Aerodrome Forecast


Current Version              Previous Versions:   1  2  3  4  5  6  7  8  9  

Terminal Aerodrome Forecast

610
FTUS44 KBMX 301858 AAA
TAFMGM
TAF AMD
KMGM 301858Z 3019/3118 VRB04KT P6SM SCT030 BKN100
     FM302300 VRB04KT P6SM BKN050
     FM310200 00000KT P6SM BKN100
     FM310600 VRB03KT P6SM BKN009
      TEMPO 3108/3112 3SM BR BKN005=

Latest METAR

974
SAUS80 KWBC 310600 RRB
MTRMGM
METAR KMGM 310553Z 00000KT 10SM CLR 22/21 A3004 RMK AO2 SLP170 T02220206
10278 20222 403170222 56002


USA.gov is the U.S. government's official web portal to all federal, state and local government web resources and services.